Edgerton, Canada
Current Conditions -  °F | °C
As of 8:00 AM on Friday 24 Oct 2014 (Local Time) from CYLL Reporting Station
Broken Clouds Broken Clouds  
Wind Chill: 29°   Ceiling: 17000
Heat Index: 39°   Visibility: 15mi
Dew Point: 32°   Wind: 23mph
Humidity: 75%   Direction: 270°W
Pressure: 29.68"   Gusts: 35mph
Location:  52.75°N, 110.45°W
Report Text: CYLL 241400Z 27020G30KT 15SM BKN170 04/M00 A2968 RMK AC6 SLP071
Loading
Personal Weather Stations






























Interactive Weather Map
Tropical Storm Tracking
New forecast layout! Learn more

10-Day Weather Forecast

Advertisements
Track Severe Weather on mobile